Time;durP1;ratioP1;P1;durP2;ratioP2;P2;SDS_P1;SDS_P2;PMS_P1;PMS_P2;Temp;Humidity;BMP_temperature;BMP_pressure;BME280_temperature;BME280_humidity;BME280_pressure;Samples;Min_cycle;Max_cycle;Signal;HPM_P1;HPM_P2
2022/10/12 00:01:04;;;;;;;12.68;7.03;;;12.80;99.90;;;13.21;73.43;102393.09;5034862;28;20045;-67
2022/10/12 00:03:32;;;;;;;;;;;12.80;99.90;;;13.06;72.71;102391.19;5036033;28;20045;-66
2022/10/12 00:06:04;;;;;;;11.50;6.43;;;12.80;99.90;;;12.97;72.12;102390.19;5035078;28;19921;-67
2022/10/12 00:08:33;;;;;;;13.43;7.63;;;12.60;99.90;;;13.04;72.42;102395.59;5035129;28;20050;-67
2022/10/12 00:11:02;;;;;;;15.88;8.45;;;12.60;99.90;;;13.13;72.42;102389.47;5034973;28;20045;-66
2022/10/12 00:13:30;;;;;;;17.08;9.30;;;12.70;99.90;;;13.21;72.81;102393.09;5034934;28;20061;-67
2022/10/12 00:16:05;;;;;;;17.00;8.52;;;12.80;99.90;;;13.08;72.52;102361.97;5034931;28;20045;-66
2022/10/12 00:18:34;;;;;;;17.92;8.85;;;12.80;99.90;;;13.14;72.69;102385.94;5035014;28;20140;-66
2022/10/12 00:21:04;;;;;;;13.60;7.53;;;12.80;99.90;;;13.08;72.63;102389.44;5034864;28;20064;-66
2022/10/12 00:23:33;;;;;;;8.45;6.80;;;12.70;99.90;;;12.95;72.93;102376.84;5035226;28;20132;-66
2022/10/12 00:26:04;;;;;;;8.13;6.37;;;12.60;99.90;;;12.91;72.57;102380.34;5034700;28;20045;-67
2022/10/12 00:28:33;;;;;;;7.43;5.20;;;12.60;99.90;;;12.74;72.86;102391.69;5035068;28;20299;-66
2022/10/12 00:31:07;;;;;;;10.18;6.28;;;12.40;99.90;;;12.60;73.42;102388.88;5034926;28;20049;-66
2022/10/12 00:33:36;;;;;;;7.93;5.68;;;12.30;99.90;;;12.29;73.92;102384.94;5034656;28;20145;-66
2022/10/12 00:36:14;;;;;;;6.15;4.53;;;12.00;99.90;;;12.04;73.66;102389.91;5034701;28;20045;-66
2022/10/12 00:38:42;;;;;;;5.82;4.30;;;11.70;99.90;;;11.87;74.35;102383.47;5035194;28;20128;-66
2022/10/12 00:41:12;;;;;;;4.78;4.38;;;11.50;99.90;;;11.83;74.84;102385.19;5034773;28;20478;-65
2022/10/12 00:43:46;;;;;;;5.30;3.80;;;11.40;99.90;;;11.67;75.38;102381.41;5034471;28;20045;-66
2022/10/12 00:46:20;;;;;;;3.92;3.63;;;11.30;99.90;;;10.89;75.10;102252.97;5034431;28;20051;-66
2022/10/12 00:48:53;;;;;;;3.92;3.55;;;11.30;99.90;;;11.57;75.20;102378.56;5034363;28;20045;-66
2022/10/12 00:51:22;;;;;;;3.90;3.60;;;11.20;99.90;;;11.55;74.67;102372.34;5034567;28;20352;-66
2022/10/12 00:53:56;;;;;;;7.30;4.47;;;11.20;99.90;;;11.58;74.95;102372.38;5034127;28;20467;-66
2022/10/12 00:56:28;;;;;;;10.30;4.75;;;11.20;99.90;;;11.61;74.99;102370.66;5034122;28;20061;-66
2022/10/12 00:59:01;;;;;;;3.90;3.60;;;11.20;99.90;;;11.68;74.36;102371.69;5034210;28;20060;-66
2022/10/12 01:01:34;;;;;;;5.13;3.60;;;11.30;99.90;;;11.63;74.23;102368.06;5034112;28;20056;-66
2022/10/12 01:04:03;;;;;;;7.20;3.75;;;11.30;99.90;;;11.74;74.11;102366.50;5034132;28;20049;-65
2022/10/12 01:06:33;;;;;;;13.10;5.00;;;11.30;99.90;;;11.92;73.92;102366.78;5034014;28;20045;-66
2022/10/12 01:09:02;;;;;;;9.20;5.70;;;11.50;99.90;;;12.00;74.67;102369.53;5034068;28;20052;-66
2022/10/12 01:11:30;;;;;;;10.50;6.72;;;11.60;99.90;;;12.01;74.75;102366.88;5033016;28;20046;-66
2022/10/12 01:13:59;;;;;;;14.68;6.97;;;11.60;99.90;;;12.11;74.91;102367.91;5033870;28;20057;-66
2022/10/12 01:16:36;;;;;;;12.63;6.07;;;11.70;99.90;;;12.14;74.82;102370.59;5033749;28;20045;-66
2022/10/12 01:19:24;;;;;;;15.93;7.47;;;11.80;99.90;;;12.27;74.75;102361.94;5034015;28;20046;-66
2022/10/12 01:22:01;;;;;;;11.38;5.30;;;11.80;99.90;;;12.08;74.02;102360.78;5033819;28;20041;-66
2022/10/12 01:24:46;;;;;;;7.07;4.90;;;11.80;99.90;;;11.93;73.61;102357.03;5033777;28;20427;-66
2022/10/12 01:27:44;;;;;;;10.45;6.28;;;11.60;99.90;;;12.00;73.37;102345.66;5033578;28;20049;-66
2022/10/12 01:30:19;;;;;;;19.83;8.50;;;11.60;99.90;;;12.15;73.80;102351.16;5033010;28;20144;-66
2022/10/12 01:33:08;;;;;;;12.43;6.70;;;11.70;99.90;;;12.17;73.82;102342.34;5033519;28;20132;-66
2022/10/12 01:35:44;;;;;;;10.63;5.38;;;11.80;99.90;;;12.08;73.46;102346.66;5033972;28;20041;-66
2022/10/12 01:38:36;;;;;;;9.05;5.07;;;11.80;99.90;;;11.98;72.96;102356.22;5033498;28;20049;-66
2022/10/12 01:41:10;;;;;;;6.97;4.45;;;11.70;99.90;;;11.69;72.61;102339.91;5033452;28;20402;-67
2022/10/12 01:43:42;;;;;;;12.40;6.25;;;11.40;99.90;;;11.62;73.38;102330.06;5033976;28;20107;-66
2022/10/12 01:46:41;;;;;;;10.30;6.22;;;11.40;99.90;;;11.74;74.45;102332.94;5033354;28;20471;-66
2022/10/12 01:49:10;;;;;;;12.05;6.55;;;11.40;99.90;;;11.74;74.65;102332.94;5033240;28;20053;-66
2022/10/12 01:52:00;;;;;;;9.68;5.97;;;11.40;99.90;;;11.75;74.23;102334.69;5033291;28;20359;-66
2022/10/12 01:54:44;;;;;;;14.02;7.28;;;11.40;99.90;;;11.87;74.74;102333.97;5033481;28;20041;-66
2022/10/12 01:57:19;;;;;;;14.15;7.80;;;11.50;99.90;;;11.99;74.37;102334.16;5033193;28;20128;-66
2022/10/12 01:59:59;;;;;;;16.75;7.47;;;11.60;99.90;;;12.02;74.46;102331.53;5033775;28;20045;-66
2022/10/12 02:02:34;;;;;;;15.43;8.55;;;11.70;99.90;;;11.97;74.42;102332.34;5033274;28;20056;-66
2022/10/12 02:05:10;;;;;;;14.85;8.23;;;11.70;99.90;;;11.97;74.41;102325.28;5032160;28;20384;-66
2022/10/12 02:07:44;;;;;;;20.40;8.73;;;11.60;99.90;;;11.98;74.41;102316.44;5033438;28;20045;-66
2022/10/12 02:10:21;;;;;;;16.92;8.63;;;11.70;99.90;;;11.99;74.47;102322.66;5033281;28;20041;-66
2022/10/12 02:12:51;;;;;;;17.00;8.63;;;11.70;99.90;;;12.12;74.52;102319.28;5033316;28;20060;-66
2022/10/12 02:15:21;;;;;;;17.48;8.40;;;11.70;99.90;;;12.16;74.21;102310.47;5033637;28;20057;-66
2022/10/12 02:17:52;;;;;;;16.83;9.32;;;11.80;99.90;;;12.20;74.27;102322.91;5033240;28;20045;-66
2022/10/12 02:20:22;;;;;;;;;;;11.80;99.90;;;12.25;74.38;102315.91;5033268;28;20045;-66
2022/10/12 02:22:52;;;;;;;19.63;9.47;;;11.90;99.90;;;12.26;74.91;102317.69;5032699;28;19928;-66
2022/10/12 02:25:23;;;;;;;24.67;10.60;;;12.00;99.90;;;12.25;74.63;102316.78;5032776;28;20048;-66
2022/10/12 02:28:00;;;;;;;19.50;10.15;;;11.90;99.90;;;12.32;74.35;102316.00;5033321;28;20045;-66
2022/10/12 02:30:28;;;;;;;23.77;10.70;;;11.90;99.90;;;12.29;74.39;102310.66;5033105;28;20072;-66
2022/10/12 02:33:03;;;;;;;23.75;10.07;;;12.00;99.90;;;12.26;74.64;102309.72;5033120;28;20038;-66
2022/10/12 02:35:38;;;;;;;21.38;9.05;;;11.90;99.90;;;12.23;74.99;102307.91;5032562;28;20514;-66
2022/10/12 02:38:13;;;;;;;19.20;9.55;;;11.90;99.90;;;12.20;74.74;102307.00;5032627;28;20133;-66
2022/10/12 02:40:46;;;;;;;12.90;7.30;;;11.80;99.90;;;12.15;74.09;102300.75;5032840;28;20064;-66
2022/10/12 02:43:21;;;;;;;15.85;8.43;;;11.90;99.90;;;12.08;73.67;102301.56;5032554;28;20577;-66
2022/10/12 02:45:50;;;;;;;11.43;7.32;;;11.70;99.90;;;11.81;73.90;102295.91;5031389;28;20470;-66
2022/10/12 02:48:23;;;;;;;18.00;8.60;;;11.50;99.90;;;11.90;74.17;102293.38;5032398;28;20034;-66
2022/10/12 02:50:55;;;;;;;19.83;10.15;;;11.50;99.90;;;11.99;74.36;102283.75;5031388;28;20414;-66
2022/10/12 02:53:26;;;;;;;21.23;10.27;;;11.60;99.90;;;11.92;74.51;102281.03;5032464;28;20071;-66
2022/10/12 02:56:01;;;;;;;22.77;9.68;;;11.70;99.90;;;12.04;74.79;102284.69;5032388;28;20049;-67
2022/10/12 02:58:29;;;;;;;21.73;9.88;;;11.70;99.90;;;12.05;74.60;102290.91;5032426;28;20380;-66
2022/10/12 03:00:58;;;;;;;19.00;9.23;;;11.70;99.90;;;12.01;75.03;102291.72;5032567;28;20041;-66
2022/10/12 03:03:27;;;;;;;17.63;8.60;;;11.70;99.90;;;11.99;74.94;102285.50;5032300;28;20446;-66
2022/10/12 03:05:56;;;;;;;18.40;9.57;;;11.60;99.90;;;12.03;75.18;102287.34;5032232;28;20621;-66
2022/10/12 03:08:24;;;;;;;17.80;9.55;;;11.60;99.90;;;12.07;74.97;102294.47;5032399;28;20052;-67
2022/10/12 03:10:52;;;;;;;23.50;10.63;;;11.70;99.90;;;11.99;75.11;102266.97;5031203;28;20092;-66
2022/10/12 03:13:21;;;;;;;19.90;9.20;;;11.70;99.90;;;12.06;75.33;102290.91;5032173;28;20425;-66
2022/10/12 03:15:49;;;;;;;17.98;9.05;;;11.70;99.90;;;12.04;75.57;102287.34;5032110;28;20049;-66
2022/10/12 03:18:17;;;;;;;14.20;8.80;;;11.70;99.90;;;11.86;75.27;102259.72;5031967;28;20046;-66
2022/10/12 03:20:49;;;;;;;15.85;8.23;;;11.70;99.90;;;11.97;74.95;102277.56;5032066;28;20033;-68
2022/10/12 03:23:17;;;;;;;11.20;7.00;;;11.60;99.90;;;11.76;74.47;102286.13;5032115;28;20379;-66
2022/10/12 03:25:45;;;;;;;8.73;6.85;;;11.50;99.90;;;11.78;74.66;102287.03;5031960;28;20046;-66
2022/10/12 03:28:14;;;;;;;12.13;7.30;;;11.40;99.90;;;11.63;75.13;102291.22;5031128;28;20460;-66
2022/10/12 03:30:43;;;;;;;13.88;7.90;;;11.30;99.90;;;11.43;74.92;102282.97;5032384;28;20046;-66
2022/10/12 03:33:11;;;;;;;14.23;7.20;;;11.10;99.90;;;11.38;74.85;102284.63;5030944;28;20529;-66
2022/10/12 03:35:40;;;;;;;11.95;7.20;;;11.00;99.90;;;11.35;75.16;102279.31;5034135;28;20056;-66
2022/10/12 03:38:09;;;;;;;9.60;6.40;;;11.00;99.90;;;11.24;75.31;102275.63;5036073;28;20402;-66
2022/10/12 03:40:38;;;;;;;8.43;6.15;;;10.90;99.90;;;11.27;74.81;102278.28;5035809;28;20041;-66
2022/10/12 03:43:06;;;;;;;9.30;5.90;;;10.90;99.90;;;11.24;74.69;102278.25;5036043;28;20171;-66
2022/10/12 03:45:35;;;;;;;13.77;6.40;;;10.90;99.90;;;11.22;75.04;102287.94;5035625;28;20046;-66
2022/10/12 03:48:04;;;;;;;12.60;7.80;;;10.80;99.90;;;11.37;75.32;102285.53;5035739;28;20055;-66
2022/10/12 03:50:34;;;;;;;12.60;7.95;;;10.90;99.90;;;11.33;75.51;102274.84;5035976;28;20050;-66
2022/10/12 03:53:04;;;;;;;22.37;10.23;;;11.00;99.90;;;11.45;75.97;102286.53;5035684;28;20050;-66
2022/10/12 03:55:34;;;;;;;8.57;7.28;;;11.00;99.90;;;11.52;75.57;102288.38;5035446;28;20049;-66
2022/10/12 03:58:02;;;;;;;7.20;6.50;;;11.10;99.90;;;11.32;74.89;102284.56;5035315;28;20084;-65
2022/10/12 04:00:31;;;;;;;10.85;6.72;;;11.00;99.90;;;11.26;75.03;102283.56;5035243;28;20053;-66
2022/10/12 04:03:00;;;;;;;16.27;8.05;;;10.90;99.90;;;11.32;75.67;102281.94;5035576;28;20041;-66
2022/10/12 04:05:29;;;;;;;17.58;9.45;;;11.00;99.90;;;11.45;76.57;102280.34;5035461;28;20041;-66
2022/10/12 04:07:57;;;;;;;25.13;11.63;;;11.00;99.90;;;11.54;78.08;102280.44;5035684;28;20438;-66
2022/10/12 04:10:26;;;;;;;22.08;10.82;;;11.10;99.90;;;11.63;78.30;102280.59;5035596;28;20041;-65
2022/10/12 04:12:57;;;;;;;15.07;7.90;;;11.10;99.90;;;11.67;77.55;102278.03;5035365;28;20056;-66
2022/10/12 04:15:25;;;;;;;15.60;9.07;;;11.20;99.90;;;11.53;76.67;102279.59;5035418;28;20475;-66
2022/10/12 04:17:54;;;;;;;22.40;11.63;;;11.20;99.90;;;11.59;77.49;102278.78;5035028;28;20037;-66
2022/10/12 04:20:22;;;;;;;22.27;11.88;;;11.20;99.90;;;11.65;78.11;102274.47;5033969;28;20049;-66
2022/10/12 04:22:50;;;;;;;25.05;12.38;;;11.20;99.90;;;11.73;78.00;102275.47;5035217;28;20049;-66
2022/10/12 04:25:18;;;;;;;24.30;12.07;;;11.30;99.90;;;11.73;78.33;102261.31;5034849;28;20491;-66
2022/10/12 04:27:47;;;;;;;24.92;13.43;;;11.30;99.90;;;11.64;78.86;102267.38;5034874;28;20053;-66
2022/10/12 04:30:17;;;;;;;25.50;13.95;;;11.30;99.90;;;11.80;79.16;102268.50;5034630;28;20057;-66
2022/10/12 04:32:45;;;;;;;36.65;14.43;;;11.30;99.90;;;11.75;79.00;102271.06;5035172;28;20041;-66
2022/10/12 04:35:14;;;;;;;26.77;14.25;;;11.30;99.90;;;11.73;79.56;102269.25;5034785;28;20449;-66
2022/10/12 04:37:42;;;;;;;26.23;14.13;;;11.30;99.90;;;11.62;79.94;102266.47;5034877;28;20053;-66
2022/10/12 04:40:11;;;;;;;22.92;13.55;;;11.20;99.90;;;11.59;80.39;102261.09;5034857;28;20049;-66
2022/10/12 04:42:39;;;;;;;23.73;14.70;;;11.20;99.90;;;11.64;80.83;102251.47;5034684;28;20056;-66
2022/10/12 04:45:09;;;;;;;21.30;12.00;;;11.20;99.90;;;11.75;80.42;102257.81;5034665;28;20104;-66
2022/10/12 04:47:38;;;;;;;19.58;10.77;;;11.30;99.90;;;11.91;79.84;102258.00;5033345;28;20061;-65
2022/10/12 04:50:08;;;;;;;22.98;12.65;;;11.40;99.90;;;11.92;79.33;102252.75;5034795;28;20041;-66
2022/10/12 04:52:36;;;;;;;25.52;13.65;;;11.50;99.90;;;12.00;79.00;102256.34;5034860;28;20457;-66
2022/10/12 04:55:06;;;;;;;24.25;14.43;;;11.60;99.90;;;12.03;79.01;102255.50;5034765;28;20140;-66
2022/10/12 04:57:34;;;;;;;27.50;17.25;;;11.70;99.90;;;12.02;78.81;102254.63;5034732;28;20045;-66
2022/10/12 05:00:04;;;;;;;37.53;26.35;;;11.70;99.90;;;11.99;79.09;102254.59;5034288;28;20483;-67
2022/10/12 05:02:33;;;;;;;30.83;24.77;;;11.60;99.90;;;11.92;79.47;102258.06;5033293;28;20461;-66
2022/10/12 05:05:02;;;;;;;39.35;21.25;;;11.60;99.90;;;11.98;79.34;102246.63;5034653;28;20049;-66
2022/10/12 05:07:31;;;;;;;20.45;12.45;;;11.60;99.90;;;11.93;78.39;102248.31;5034567;28;20038;-66
2022/10/12 05:09:59;;;;;;;22.67;13.13;;;11.60;99.90;;;11.88;78.14;102250.03;5034114;28;20440;-66
2022/10/12 05:12:27;;;;;;;17.52;12.13;;;11.50;99.90;;;11.85;77.84;102257.94;5034088;28;20052;-66
2022/10/12 05:14:55;;;;;;;16.25;9.93;;;11.50;99.90;;;11.71;77.50;102252.47;5033089;28;20483;-66
2022/10/12 05:17:23;;;;;;;15.18;9.85;;;11.40;99.90;;;11.64;77.63;102246.16;5034055;28;20045;-66
2022/10/12 05:19:52;;;;;;;19.02;11.25;;;11.30;99.90;;;11.56;77.86;102241.63;5033962;28;20502;-66
2022/10/12 05:22:21;;;;;;;14.18;10.00;;;11.20;99.90;;;11.57;77.99;102248.72;5033981;28;20038;-66
2022/10/12 05:24:50;;;;;;;16.05;9.15;;;11.20;99.90;;;11.53;78.05;102245.13;5034429;28;20041;-66
2022/10/12 05:27:21;;;;;;;24.92;12.52;;;11.20;99.90;;;11.61;78.23;102250.53;5034274;28;20337;-66
2022/10/12 05:29:49;;;;;;;10.02;8.00;;;11.20;99.90;;;11.44;77.32;102252.06;5033758;28;20058;-66
2022/10/12 05:32:17;;;;;;;10.32;9.25;;;11.10;99.90;;;11.39;76.60;102248.44;5033881;28;20033;-66
2022/10/12 05:34:45;;;;;;;18.80;12.90;;;11.10;99.90;;;11.44;76.87;102249.44;5033911;28;20064;-67
2022/10/12 05:37:14;;;;;;;10.02;8.98;;;11.10;99.90;;;11.41;76.59;102244.97;5033373;28;20056;-65
2022/10/12 05:39:44;;;;;;;16.48;12.90;;;11.10;99.90;;;11.52;77.08;102246.00;5033627;28;20406;-65
2022/10/12 05:42:13;;;;;;;24.45;17.48;;;11.10;99.90;;;11.49;78.20;102248.63;5033377;28;20053;-65
2022/10/12 05:44:41;;;;;;;16.50;12.40;;;11.10;99.90;;;11.55;77.92;102239.84;5033322;28;20045;-66
2022/10/12 05:47:09;;;;;;;19.83;11.07;;;11.20;99.90;;;11.54;77.62;102246.91;5033598;28;20483;-67
2022/10/12 05:49:37;;;;;;;25.38;16.08;;;11.20;99.90;;;11.66;77.76;102244.47;5033292;28;20053;-66
2022/10/12 05:52:06;;;;;;;38.15;21.05;;;11.30;99.90;;;11.68;78.72;102247.13;5033403;28;20441;-67
2022/10/12 05:54:34;;;;;;;21.80;13.68;;;11.30;99.90;;;11.75;78.61;102252.53;5033094;28;20392;-68
2022/10/12 05:57:04;;;;;;;35.42;20.85;;;11.30;99.90;;;11.84;78.99;102248.22;5032854;28;20076;-68
2022/10/12 05:59:32;;;;;;;24.92;16.45;;;11.40;99.90;;;11.94;79.09;102248.34;5032913;28;20059;-66
2022/10/12 06:02:00;;;;;;;25.58;14.68;;;11.50;99.90;;;11.97;78.44;102260.75;5032997;28;20041;-67
2022/10/12 06:04:29;;;;;;;30.63;17.88;;;11.60;99.90;;;11.99;78.42;102251.03;5033181;28;20152;-67
2022/10/12 06:06:57;;;;;;;18.95;12.70;;;11.60;99.90;;;11.94;77.79;102243.06;5032832;28;20034;-66
2022/10/12 06:09:25;;;;;;;16.25;9.80;;;11.50;99.90;;;11.86;77.06;102241.16;5032900;28;20041;-66
2022/10/12 06:11:54;;;;;;;17.77;10.70;;;11.50;99.90;;;11.76;76.56;102240.16;5033452;28;20045;-68
2022/10/12 06:14:24;;;;;;;20.20;11.88;;;11.40;99.90;;;11.72;76.59;102239.25;5032927;28;20053;-67
2022/10/12 06:16:52;;;;;;;20.90;12.18;;;11.40;99.90;;;11.76;76.80;102234.88;5032960;28;20049;-66
2022/10/12 06:19:21;;;;;;;25.83;12.55;;;11.40;99.90;;;11.75;76.92;102235.72;5033067;28;20041;-67
2022/10/12 06:21:50;;;;;;;19.10;11.13;;;11.50;99.90;;;11.74;76.71;102244.56;5033133;28;20552;-67
2022/10/12 06:24:18;;;;;;;20.13;11.75;;;11.40;99.90;;;11.55;76.87;102216.91;5033019;28;20406;-66
2022/10/12 06:26:46;;;;;;;15.48;10.60;;;11.30;99.90;;;11.58;76.13;102234.56;5033175;28;20095;-66
2022/10/12 06:29:15;;;;;;;17.50;9.68;;;11.20;99.90;;;11.50;76.12;102231.81;5032933;28;20076;-67
2022/10/12 06:31:44;;;;;;;14.30;9.43;;;11.20;99.90;;;11.52;76.14;102240.69;5032871;28;20053;-66
2022/10/12 06:34:18;;;;;;;15.05;10.27;;;11.20;99.90;;;11.50;76.39;102233.59;5033048;28;20045;-66
2022/10/12 06:36:47;;;;;;;17.92;10.35;;;11.20;99.90;;;11.52;76.34;102234.50;5032628;28;20053;-66
2022/10/12 06:39:15;;;;;;;20.40;11.40;;;11.10;99.90;;;11.46;76.51;102240.59;5031520;28;20049;-65
2022/10/12 06:41:43;;;;;;;18.30;10.57;;;11.10;99.90;;;11.42;76.52;102235.25;5032439;28;20056;-65
2022/10/12 06:44:12;;;;;;;12.05;10.00;;;11.10;99.90;;;11.55;76.57;102246.06;5032326;28;20038;-66
2022/10/12 06:46:40;;;;;;;16.88;9.52;;;11.10;99.90;;;11.61;76.24;102238.16;5032315;28;20060;-65
2022/10/12 06:49:10;;;;;;;13.68;9.18;;;11.30;99.90;;;11.64;76.28;102248.81;5032104;28;20428;-65
2022/10/12 06:51:38;;;;;;;15.30;9.43;;;11.30;99.90;;;11.60;76.23;102233.75;5032177;28;20042;-65
2022/10/12 06:54:07;;;;;;;12.55;8.30;;;11.30;99.90;;;11.65;76.24;102236.47;5032483;28;20050;-66
2022/10/12 06:56:37;;;;;;;12.05;8.07;;;11.30;99.90;;;11.71;76.32;102237.44;5032463;28;20042;-66
2022/10/12 06:59:05;;;;;;;16.58;9.80;;;11.30;99.90;;;11.87;77.05;102246.47;5032410;28;20042;-65
2022/10/12 07:01:33;;;;;;;19.40;9.23;;;11.50;99.90;;;12.00;77.70;102242.22;5031913;28;20055;-65
2022/10/12 07:04:02;;;;;;;15.20;10.32;;;11.60;99.90;;;12.03;77.14;102242.25;5032326;28;20045;-66
2022/10/12 07:06:32;;;;;;;16.30;9.05;;;11.60;99.90;;;12.10;76.46;102236.16;5032253;28;20513;-65
2022/10/12 07:09:01;;;;;;;;;;;11.70;99.90;;;12.06;76.22;102231.69;5032532;28;20055;-65
2022/10/12 07:11:29;;;;;;;23.67;12.98;;;11.70;99.90;;;12.15;76.99;102234.44;5036074;28;19967;-66
2022/10/12 07:13:58;;;;;;;23.55;12.32;;;11.80;99.90;;;12.43;76.46;102225.88;5036326;28;20042;-65
2022/10/12 07:16:26;;;;;;;25.65;14.05;;;12.00;99.90;;;12.55;76.00;102232.22;5036070;28;20038;-65
2022/10/12 07:18:54;;;;;;;24.42;12.80;;;12.20;99.90;;;12.72;75.41;102239.44;5036249;28;20403;-66
2022/10/12 07:21:22;;;;;;;25.00;11.15;;;12.40;99.90;;;12.82;75.07;102234.22;5036243;28;20052;-67
2022/10/12 07:23:53;;;;;;;24.83;12.18;;;12.50;99.90;;;12.87;74.50;102240.47;5035864;28;20373;-67
2022/10/12 07:26:21;;;;;;;22.35;11.27;;;12.60;99.90;;;13.13;75.17;102238.91;5035827;28;20041;-67
2022/10/12 07:28:49;;;;;;;22.00;12.57;;;12.80;99.90;;;13.58;74.95;102243.63;5035604;28;20053;-67
2022/10/12 07:31:17;;;;;;;22.30;12.00;;;13.20;99.90;;;13.95;73.47;102244.69;5036303;28;20080;-68
2022/10/12 07:33:46;;;;;;;27.13;12.10;;;13.60;99.90;;;14.40;72.70;102231.56;5035742;28;20061;-66
2022/10/12 07:36:14;;;;;;;25.77;12.57;;;14.00;99.90;;;14.72;70.93;102239.56;5035513;28;20052;-66
2022/10/12 07:38:49;;;;;;;29.92;13.80;;;14.40;99.90;;;15.08;69.32;102245.78;5035731;28;20107;-65
2022/10/12 07:41:19;;;;;;;22.35;12.60;;;14.70;99.90;;;15.43;68.55;102245.75;5035369;28;20041;-65
2022/10/12 07:43:47;;;;;;;26.80;12.57;;;15.10;99.90;;;15.90;67.95;102253.63;5035887;28;20387;-65
2022/10/12 07:46:16;;;;;;;27.65;11.75;;;15.50;99.90;;;16.11;66.86;102246.41;5035485;28;20045;-66
2022/10/12 07:48:44;;;;;;;29.30;12.77;;;15.80;99.90;;;16.52;66.47;102262.22;5035264;28;20045;-67
2022/10/12 07:51:18;;;;;;;25.83;13.13;;;16.10;99.90;;;16.75;65.32;102241.56;5035688;28;20041;-67
2022/10/12 07:53:46;;;;;;;32.15;13.48;;;16.50;99.90;;;17.24;64.09;102265.22;5035883;28;20045;-67
2022/10/12 07:56:15;;;;;;;23.20;12.27;;;16.80;99.90;;;17.62;62.89;102268.41;5035610;28;20402;-66
2022/10/12 07:58:49;;;;;;;29.58;14.27;;;17.20;99.90;;;17.95;61.06;102278.72;5034482;28;20080;-66
2022/10/12 08:01:19;;;;;;;27.10;14.45;;;17.60;99.90;;;18.15;59.75;102276.69;5035217;28;20041;-67
2022/10/12 08:03:48;;;;;;;30.00;14.95;;;17.80;99.90;;;18.22;58.91;102281.06;5034185;28;20503;-67
2022/10/12 08:06:19;;;;;;;29.02;15.70;;;18.00;99.90;;;17.93;58.83;102275.19;5035332;28;20044;-66
2022/10/12 08:08:48;;;;;;;27.30;15.35;;;17.70;99.90;;;17.72;59.59;102278.13;5035110;28;20403;-67
2022/10/12 08:11:18;;;;;;;28.83;14.50;;;17.50;99.90;;;17.69;59.97;102280.84;5035400;28;20045;-67
2022/10/12 08:13:48;;;;;;;32.53;15.35;;;17.40;99.90;;;17.71;58.97;102287.94;5035668;28;20072;-67
2022/10/12 08:16:19;;;;;;;32.03;15.63;;;17.40;99.90;;;18.00;59.71;102293.84;5035921;28;20099;-67
2022/10/12 08:18:47;;;;;;;30.02;14.80;;;17.60;99.90;;;17.86;59.21;102298.50;5035366;28;20073;-67
2022/10/12 08:21:17;;;;;;;28.10;14.90;;;17.40;99.90;;;17.80;58.89;102277.13;5034732;28;20450;-67
2022/10/12 08:23:46;;;;;;;25.33;14.50;;;17.40;99.90;;;17.42;59.94;102273.94;5035282;28;20068;-67
2022/10/12 08:26:15;;;;;;;27.52;14.93;;;17.00;99.90;;;16.81;60.88;102180.06;5035315;28;20053;-67
2022/10/12 08:28:44;;;;;;;27.95;15.10;;;16.90;99.90;;;17.59;60.31;102292.53;5034713;28;20136;-67
2022/10/12 08:31:16;;;;;;;24.92;14.07;;;17.10;99.90;;;17.91;60.26;102277.88;5034880;28;20506;-67
2022/10/12 08:33:45;;;;;;;26.40;14.05;;;17.40;99.90;;;18.12;58.56;102290.13;5034781;28;20049;-68
2022/10/12 08:36:13;;;;;;;32.10;13.70;;;17.70;99.90;;;17.97;58.83;102290.31;5035054;28;20041;-67
2022/10/12 08:38:44;;;;;;;26.23;13.70;;;17.70;99.90;;;17.52;59.57;102288.13;5034780;28;20129;-67
2022/10/12 08:41:28;;;;;;;27.25;13.02;;;17.20;99.90;;;17.22;60.58;102267.00;5035300;28;20129;-67
2022/10/12 08:44:11;;;;;;;25.85;13.32;;;16.90;99.90;;;16.23;62.76;102258.81;5035042;28;20487;-67
2022/10/12 08:46:41;;;;;;;26.52;14.18;;;16.00;99.90;;;15.41;66.31;102247.50;5034975;28;20368;-67
2022/10/12 08:49:15;;;;;;;28.80;14.90;;;15.10;99.90;;;15.28;68.37;102245.75;5033775;28;20060;-67
2022/10/12 08:51:49;;;;;;;29.15;14.98;;;14.80;99.90;;;15.41;68.45;102243.97;5034812;28;20099;-67
2022/10/12 08:54:21;;;;;;;35.75;14.93;;;14.80;99.90;;;15.69;69.09;102237.69;5034512;28;20045;-67
2022/10/12 08:56:53;;;;;;;25.88;14.95;;;15.10;99.90;;;16.02;68.56;102245.56;5034491;28;20045;-67
2022/10/12 08:59:21;;;;;;;28.50;14.02;;;15.40;99.90;;;16.42;67.10;102233.75;5034812;28;20102;-67
2022/10/12 09:02:02;;;;;;;28.70;13.98;;;15.90;99.90;;;17.45;65.53;102275.69;5034305;28;20091;-67
2022/10/12 09:04:47;;;;;;;26.60;13.93;;;16.80;99.90;;;18.12;63.71;102278.53;5049908;28;20068;-67
2022/10/12 09:07:20;;;;;;;23.65;13.40;;;17.60;99.90;;;18.56;61.08;102269.00;5034201;28;20402;-67
2022/10/12 09:10:06;;;;;;;29.33;13.63;;;18.30;99.90;;;18.33;60.67;102281.78;5034346;28;20502;-68
2022/10/12 09:12:49;;;;;;;25.17;11.45;;;18.20;99.90;;;18.98;58.32;102282.63;5034032;28;20060;-67
2022/10/12 09:15:24;;;;;;;22.92;10.60;;;18.60;99.90;;;19.11;55.50;102287.78;5034155;28;20053;-68
2022/10/12 09:17:56;;;;;;;28.58;12.02;;;18.80;99.90;;;19.02;55.08;102296.00;5033914;28;20080;-68
2022/10/12 09:20:29;;;;;;;26.70;11.10;;;18.80;99.90;;;19.55;54.75;102292.41;5033860;28;20407;-68
2022/10/12 09:23:21;;;;;;;21.73;10.98;;;19.10;99.90;;;19.94;54.20;102297.00;5034116;28;20386;-68
2022/10/12 09:25:50;;;;;;;21.98;10.25;;;19.60;99.90;;;20.33;52.14;102293.50;5032511;28;20392;-68
2022/10/12 09:28:26;;;;;;;21.50;9.73;;;20.10;99.90;;;20.29;51.15;102294.50;5033600;28;20041;-68
2022/10/12 09:31:10;;;;;;;21.42;10.80;;;20.10;99.90;;;20.19;51.03;102282.16;5033647;28;20080;-68
2022/10/12 09:33:44;;;;;;;21.05;10.10;;;20.00;99.90;;;20.30;50.90;102280.16;5032748;28;20063;-68
2022/10/12 09:36:20;;;;;;;21.70;10.65;;;20.00;99.90;;;20.01;50.62;102287.91;5033926;28;20056;-68
2022/10/12 09:38:49;;;;;;;26.13;10.25;;;19.80;99.90;;;20.17;52.09;102283.97;5034012;28;20068;-68
2022/10/12 09:41:22;;;;;;;23.97;9.30;;;19.80;99.90;;;20.39;50.35;102285.31;5033679;28;20042;-68
2022/10/12 09:43:55;;;;;;;16.70;7.40;;;20.10;99.90;;;20.49;48.95;102278.81;5032410;28;20351;-68
2022/10/12 09:46:39;;;;;;;16.85;7.85;;;20.20;99.90;;;20.52;48.25;102275.16;5033648;28;20045;-69
2022/10/12 09:49:09;;;;;;;18.92;8.43;;;20.20;99.90;;;19.72;49.30;102185.56;5033554;28;20046;-68
2022/10/12 09:51:37;;;;;;;20.73;8.93;;;20.00;99.90;;;19.24;51.94;102253.59;5033057;28;20069;-62
2022/10/12 09:54:07;;;;;;;16.70;8.52;;;19.00;99.90;;;19.21;51.76;102256.31;5033267;28;20042;-65
2022/10/12 09:56:44;;;;;;;22.13;7.57;;;18.80;99.90;;;19.53;50.52;102241.41;5033092;28;20042;-63
2022/10/12 09:59:29;;;;;;;19.42;8.30;;;19.10;99.90;;;18.30;53.38;102222.00;5033560;28;20053;-64
2022/10/12 10:02:04;;;;;;;20.23;8.45;;;18.20;99.90;;;17.49;55.49;102210.59;5033082;28;20045;-64
2022/10/12 10:04:34;;;;;;;25.00;8.95;;;17.30;99.90;;;17.08;56.36;102206.53;5033548;28;20546;-62
2022/10/12 10:07:24;;;;;;;18.63;8.50;;;16.80;99.90;;;16.84;57.27;102179.16;5032886;28;20517;-64
2022/10/12 10:10:15;;;;;;;15.47;6.23;;;16.60;99.90;;;16.65;56.36;102189.09;5032876;28;20049;-65
2022/10/12 10:12:50;;;;;;;21.23;7.82;;;16.20;99.90;;;16.34;57.82;102181.31;5032724;28;20304;-63
2022/10/12 10:15:23;;;;;;;21.55;8.20;;;16.00;99.90;;;16.35;58.40;102178.63;5032704;28;20041;-64
2022/10/12 10:17:55;;;;;;;22.95;9.48;;;15.90;99.90;;;16.48;58.59;102169.66;5032792;28;20041;-64
2022/10/12 10:20:31;;;;;;;19.85;9.10;;;16.00;99.90;;;16.31;59.25;102167.97;5032685;28;20060;-65
2022/10/12 10:23:00;;;;;;;23.13;8.82;;;16.00;99.90;;;16.08;58.81;102173.47;5032680;28;20115;-62